Time;durP1;ratioP1;P1;durP2;ratioP2;P2;SDS_P1;SDS_P2;PMS_P1;PMS_P2;Temp;Humidity;BMP_temperature;BMP_pressure;BME280_temperature;BME280_humidity;BME280_pressure;Samples;Min_cycle;Max_cycle;Signal;HPM_P1;HPM_P2
2023/02/18 00:00:17;;;;;;;16.58;3.78;;;;;;;;;;5084678;28;21574;-69
2023/02/18 00:02:44;;;;;;;16.58;3.55;;;;;;;;;;5087075;28;20066;-68
2023/02/18 00:05:10;;;;;;;25.60;4.05;;;;;;;;;;5093180;28;20342;-68
2023/02/18 00:07:37;;;;;;;25.17;3.60;;;;;;;;;;5076101;28;20039;-69
2023/02/18 00:10:04;;;;;;;22.05;3.70;;;;;;;;;;5072706;28;20079;-68
2023/02/18 00:12:31;;;;;;;27.02;4.47;;;;;;;;;;5079512;28;20528;-68
2023/02/18 00:14:57;;;;;;;19.75;3.38;;;;;;;;;;5093338;28;20161;-68
2023/02/18 00:17:24;;;;;;;18.02;3.63;;;;;;;;;;5095725;28;20124;-68
2023/02/18 00:19:50;;;;;;;28.35;6.45;;;;;;;;;;5093546;28;20059;-68
2023/02/18 00:22:16;;;;;;;19.10;4.00;;;;;;;;;;5095533;28;20082;-69
2023/02/18 00:24:43;;;;;;;27.00;4.05;;;;;;;;;;5094633;28;20168;-68
2023/02/18 00:27:09;;;;;;;31.65;4.68;;;;;;;;;;5075574;28;20148;-68
2023/02/18 00:29:35;;;;;;;20.15;4.30;;;;;;;;;;5090785;28;20039;-69
2023/02/18 00:32:01;;;;;;;24.95;4.32;;;;;;;;;;5097177;28;20382;-69
2023/02/18 00:34:27;;;;;;;21.50;4.50;;;;;;;;;;5091865;28;20039;-68
2023/02/18 00:36:54;;;;;;;20.25;4.20;;;;;;;;;;5076185;28;20394;-68
2023/02/18 00:39:20;;;;;;;17.55;3.78;;;;;;;;;;5091810;28;20071;-69
2023/02/18 00:41:46;;;;;;;32.45;4.82;;;;;;;;;;5095771;28;20138;-69
2023/02/18 00:44:12;;;;;;;23.55;4.60;;;;;;;;;;5093452;27;20058;-68
2023/02/18 00:46:39;;;;;;;30.92;4.80;;;;;;;;;;5097680;28;20163;-68
2023/02/18 00:49:06;;;;;;;30.33;4.60;;;;;;;;;;5075030;28;20075;-68
2023/02/18 00:51:32;;;;;;;25.10;4.32;;;;;;;;;;5094706;28;20466;-69
2023/02/18 00:53:58;;;;;;;27.67;4.28;;;;;;;;;;5102870;28;20035;-68
2023/02/18 00:56:24;;;;;;;22.48;4.30;;;;;;;;;;5074820;28;20163;-68
2023/02/18 00:58:51;;;;;;;29.05;5.05;;;;;;;;;;5097561;28;20060;-69
2023/02/18 01:01:17;;;;;;;23.02;4.85;;;;;;;;;;5095648;28;20043;-68
2023/02/18 01:03:43;;;;;;;27.00;4.63;;;;;;;;;;5101180;27;20437;-68
2023/02/18 01:06:10;;;;;;;23.65;5.00;;;;;;;;;;5101385;27;20050;-68
2023/02/18 01:08:37;;;;;;;23.98;4.80;;;;;;;;;;5102222;27;20944;-68
2023/02/18 01:11:04;;;;;;;23.98;5.60;;;;;;;;;;5102044;27;20050;-68
2023/02/18 01:13:30;;;;;;;30.60;5.70;;;;;;;;;;5100175;27;20406;-69
2023/02/18 01:15:57;;;;;;;27.92;5.80;;;;;;;;;;5083630;28;20044;-68
2023/02/18 01:18:24;;;;;;;28.42;4.93;;;;;;;;;;5099001;27;20051;-69
2023/02/18 01:20:50;;;;;;;25.88;5.32;;;;;;;;;;5081623;28;20040;-69
2023/02/18 01:23:17;;;;;;;28.73;5.35;;;;;;;;;;5081824;28;20051;-68
2023/02/18 01:25:43;;;;;;;28.75;5.95;;;;;;;;;;5101173;27;20066;-69
2023/02/18 01:28:10;;;;;;;21.70;4.85;;;;;;;;;;5101997;27;20442;-68
2023/02/18 01:30:36;;;;;;;25.02;4.70;;;;;;;;;;5101704;27;20040;-68
2023/02/18 01:33:03;;;;;;;35.65;6.22;;;;;;;;;;5082797;28;20453;-68
2023/02/18 01:35:29;;;;;;;19.13;4.22;;;;;;;;;;5102192;27;20035;-68
2023/02/18 01:37:55;;;;;;;24.27;4.63;;;;;;;;;;5100326;27;20491;-69
2023/02/18 01:40:22;;;;;;;24.98;4.13;;;;;;;;;;5098896;27;20492;-68
2023/02/18 01:42:49;;;;;;;22.02;4.65;;;;;;;;;;5101017;28;20060;-68
2023/02/18 01:45:33;;;;;;;20.42;4.35;;;;;;;;;;5099866;28;20072;-68
2023/02/18 01:48:03;;;;;;;23.50;4.43;;;;;;;;;;5080731;28;20083;-68
2023/02/18 01:50:33;;;;;;;20.85;4.68;;;;;;;;;;5079446;28;20127;-68
2023/02/18 01:52:59;;;;;;;20.38;4.28;;;;;;;;;;5097351;28;20419;-68
2023/02/18 01:55:26;;;;;;;25.20;4.43;;;;;;;;;;5082016;28;20052;-68
2023/02/18 01:57:53;;;;;;;21.70;5.25;;;;;;;;;;5103340;28;20558;-68
2023/02/18 02:00:20;;;;;;;26.27;4.38;;;;;;;;;;5099664;28;20131;-68
2023/02/18 02:02:47;;;;;;;20.80;5.00;;;;;;;;;;5098938;28;20613;-68
2023/02/18 02:05:14;;;;;;;26.10;4.65;;;;;;;;;;5099936;28;20062;-68
2023/02/18 02:07:41;;;;;;;20.48;5.10;;;;;;;;;;5100466;28;20065;-68
2023/02/18 02:10:08;;;;;;;14.20;4.07;;;;;;;;;;5100920;28;20040;-68
2023/02/18 02:12:41;;;;;;;26.77;5.30;;;;;;;;;;5100891;28;20054;-68
2023/02/18 02:15:07;;;;;;;25.42;5.25;;;;;;;;;;5076646;28;20046;-68
2023/02/18 02:17:34;;;;;;;19.58;5.72;;;;;;;;;;5097979;28;20157;-68
2023/02/18 02:20:12;;;;;;;24.85;6.13;;;;;;;;;;5096357;28;20044;-69
2023/02/18 02:22:57;;;;;;;23.20;5.55;;;;;;;;;;5097301;28;20371;-68
2023/02/18 02:25:29;;;;;;;17.85;5.10;;;;;;;;;;5077926;28;20063;-69
2023/02/18 02:27:58;;;;;;;25.33;5.07;;;;;;;;;;5094951;28;20120;-68
2023/02/18 02:30:24;;;;;;;20.85;4.57;;;;;;;;;;5079777;28;20043;-68
2023/02/18 02:32:53;;;;;;;21.52;5.50;;;;;;;;;;5096398;28;20048;-69
2023/02/18 02:35:19;;;;;;;24.25;5.85;;;;;;;;;;5097433;28;20824;-68
2023/02/18 02:37:49;;;;;;;20.08;5.05;;;;;;;;;;5095596;28;20059;-69
2023/02/18 02:40:32;;;;;;;18.90;5.43;;;;;;;;;;5097723;28;20473;-68
2023/02/18 02:43:04;;;;;;;23.92;6.13;;;;;;;;;;5097866;28;20130;-68
2023/02/18 02:45:50;;;;;;;25.50;6.40;;;;;;;;;;5093863;28;20048;-69
2023/02/18 02:48:29;;;;;;;20.17;4.95;;;;;;;;;;5094749;28;20036;-68
2023/02/18 02:51:04;;;;;;;20.67;5.93;;;;;;;;;;5093454;28;20487;-68
2023/02/18 02:53:31;;;;;;;17.90;5.10;;;;;;;;;;5095174;28;20104;-68
2023/02/18 02:55:57;;;;;;;30.80;5.75;;;;;;;;;;5095618;28;20086;-69
2023/02/18 02:58:23;;;;;;;24.00;6.85;;;;;;;;;;5095007;28;20043;-68
2023/02/18 03:00:56;;;;;;;18.52;6.20;;;;;;;;;;5093859;28;20071;-69
2023/02/18 03:03:26;;;;;;;27.63;6.65;;;;;;;;;;5073321;28;20063;-68
2023/02/18 03:06:07;;;;;;;21.25;5.65;;;;;;;;;;5092578;28;20458;-68
2023/02/18 03:08:40;;;;;;;22.75;6.60;;;;;;;;;;5092768;28;20048;-69
2023/02/18 03:11:08;;;;;;;27.75;6.55;;;;;;;;;;5094020;28;21086;-68
2023/02/18 03:13:49;;;;;;;22.52;6.03;;;;;;;;;;5093377;28;20388;-68
2023/02/18 03:16:18;;;;;;;19.20;5.00;;;;;;;;;;5082272;28;21824;-69
2023/02/18 03:18:48;;;;;;;24.92;5.00;;;;;;;;;;5094462;28;20093;-68
2023/02/18 03:21:17;;;;;;;21.27;5.30;;;;;;;;;;5095933;28;20208;-68
2023/02/18 03:23:52;;;;;;;18.67;4.70;;;;;;;;;;5074804;28;20044;-68
2023/02/18 03:26:19;;;;;;;23.15;5.22;;;;;;;;;;5093595;28;20409;-68
2023/02/18 03:28:46;;;;;;;19.10;4.95;;;;;;;;;;5077756;28;20054;-68
2023/02/18 03:31:15;;;;;;;22.08;5.00;;;;;;;;;;5094993;28;20251;-69
2023/02/18 03:33:50;;;;;;;16.60;4.07;;;;;;;;;;5091652;28;20052;-69
2023/02/18 03:36:18;;;;;;;11.35;4.30;;;;;;;;;;5094875;28;20174;-69
2023/02/18 03:38:46;;;;;;;19.67;4.43;;;;;;;;;;5069442;28;20096;-69
2023/02/18 03:41:13;;;;;;;20.02;3.97;;;;;;;;;;5091980;28;20086;-69
2023/02/18 03:43:40;;;;;;;14.25;3.97;;;;;;;;;;5095541;28;20059;-69
2023/02/18 03:46:07;;;;;;;13.95;4.07;;;;;;;;;;5076721;28;20051;-69
2023/02/18 03:48:33;;;;;;;18.13;4.28;;;;;;;;;;5094681;28;20054;-69
2023/02/18 03:50:59;;;;;;;17.52;4.22;;;;;;;;;;5092796;28;20040;-68
2023/02/18 03:53:26;;;;;;;19.17;5.22;;;;;;;;;;5079324;28;20093;-69
2023/02/18 03:55:52;;;;;;;18.80;4.13;;;;;;;;;;5093964;28;20054;-69
2023/02/18 03:58:18;;;;;;;20.83;4.05;;;;;;;;;;5092566;28;20039;-69
2023/02/18 04:00:45;;;;;;;15.23;3.97;;;;;;;;;;5094030;28;20035;-69
2023/02/18 04:03:11;;;;;;;20.20;4.45;;;;;;;;;;5097055;28;20043;-68
2023/02/18 04:05:37;;;;;;;15.20;3.90;;;;;;;;;;5074944;28;20105;-69
2023/02/18 04:08:04;;;;;;;22.65;4.40;;;;;;;;;;5088650;28;20032;-69
2023/02/18 04:10:31;;;;;;;16.30;4.50;;;;;;;;;;5093382;28;20759;-69
2023/02/18 04:12:57;;;;;;;25.73;5.43;;;;;;;;;;5094681;28;20119;-69
2023/02/18 04:15:23;;;;;;;27.67;5.63;;;;;;;;;;5091108;28;20039;-69
2023/02/18 04:17:50;;;;;;;24.60;6.40;;;;;;;;;;5093970;28;20079;-69
2023/02/18 04:20:17;;;;;;;24.85;6.72;;;;;;;;;;5089120;28;20040;-69
2023/02/18 04:22:43;;;;;;;19.85;6.05;;;;;;;;;;5073886;28;20058;-69
2023/02/18 04:25:09;;;;;;;22.98;6.60;;;;;;;;;;5093271;28;20478;-69
2023/02/18 04:27:35;;;;;;;31.70;7.40;;;;;;;;;;5073444;28;20051;-69
2023/02/18 04:30:02;;;;;;;26.55;7.35;;;;;;;;;;5094598;28;20395;-69
2023/02/18 04:32:28;;;;;;;35.95;7.05;;;;;;;;;;5075087;28;20093;-69
2023/02/18 04:34:54;;;;;;;29.40;7.72;;;;;;;;;;5074473;28;20139;-69
2023/02/18 04:37:20;;;;;;;25.55;7.10;;;;;;;;;;5076431;28;20508;-69
2023/02/18 04:39:46;;;;;;;30.83;9.35;;;;;;;;;;5094503;28;20158;-69
2023/02/18 04:42:13;;;;;;;28.02;9.73;;;;;;;;;;5092913;28;20050;-69
2023/02/18 04:44:39;;;;;;;29.77;11.02;;;;;;;;;;5094730;28;20047;-69
2023/02/18 04:47:05;;;;;;;38.75;11.70;;;;;;;;;;5075773;28;20415;-69
2023/02/18 04:49:32;;;;;;;42.75;12.00;;;;;;;;;;5092430;28;20067;-69
2023/02/18 04:51:58;;;;;;;50.30;14.82;;;;;;;;;;5080742;28;20058;-69
2023/02/18 04:54:24;;;;;;;57.88;16.17;;;;;;;;;;5079260;28;20039;-69
2023/02/18 04:56:50;;;;;;;55.15;18.58;;;;;;;;;;5093151;28;20509;-69
2023/02/18 04:59:17;;;;;;;66.30;20.08;;;;;;;;;;5096949;28;20043;-69
2023/02/18 05:01:43;;;;;;;71.75;22.02;;;;;;;;;;5092094;28;20051;-69
2023/02/18 05:04:09;;;;;;;64.40;22.55;;;;;;;;;;5093482;28;20047;-69
2023/02/18 05:06:38;;;;;;;75.28;26.73;;;;;;;;;;5092945;28;20052;-70
2023/02/18 05:09:04;;;;;;;99.18;29.42;;;;;;;;;;5093428;28;21748;-70
2023/02/18 05:11:30;;;;;;;106.82;34.13;;;;;;;;;;5093359;28;21884;-69
2023/02/18 05:13:56;;;;;;;113.70;39.53;;;;;;;;;;5093232;28;20399;-69
2023/02/18 05:16:22;;;;;;;139.07;38.95;;;;;;;;;;5092669;28;20135;-69
2023/02/18 05:18:49;;;;;;;148.75;43.90;;;;;;;;;;5093754;28;20054;-69
2023/02/18 05:21:15;;;;;;;163.88;46.75;;;;;;;;;;5093342;28;20085;-69
2023/02/18 05:23:41;;;;;;;159.18;45.53;;;;;;;;;;5093621;28;20123;-69
2023/02/18 05:26:07;;;;;;;176.25;47.08;;;;;;;;;;5090604;28;20044;-69
2023/02/18 05:28:33;;;;;;;150.43;49.28;;;;;;;;;;5092856;28;20047;-69
2023/02/18 05:31:00;;;;;;;164.70;48.53;;;;;;;;;;5094993;28;20045;-69
2023/02/18 05:33:26;;;;;;;164.93;47.90;;;;;;;;;;5093633;28;20123;-69
2023/02/18 05:35:52;;;;;;;152.55;46.10;;;;;;;;;;5076174;28;20055;-69
2023/02/18 05:38:18;;;;;;;145.77;45.53;;;;;;;;;;5094425;28;20459;-69
2023/02/18 05:40:45;;;;;;;167.88;47.55;;;;;;;;;;5096510;28;20063;-69
2023/02/18 05:43:11;;;;;;;178.82;47.88;;;;;;;;;;5092264;28;20076;-70
2023/02/18 05:45:37;;;;;;;164.75;45.33;;;;;;;;;;5095217;28;20470;-70
2023/02/18 05:48:03;;;;;;;143.18;42.15;;;;;;;;;;5078079;28;20047;-69
2023/02/18 05:50:29;;;;;;;160.93;45.00;;;;;;;;;;5096843;28;20120;-70
2023/02/18 05:52:56;;;;;;;194.57;47.60;;;;;;;;;;5099513;28;20800;-68
2023/02/18 05:55:23;;;;;;;135.77;40.10;;;;;;;;;;5095519;28;20443;-69
2023/02/18 05:57:49;;;;;;;144.35;41.33;;;;;;;;;;5094748;28;20054;-68
2023/02/18 06:00:16;;;;;;;127.97;38.63;;;;;;;;;;5062587;28;20067;-69
2023/02/18 06:02:42;;;;;;;135.00;38.88;;;;;;;;;;5098691;28;20044;-69
2023/02/18 06:05:09;;;;;;;147.48;40.00;;;;;;;;;;5098932;28;20039;-69
2023/02/18 06:07:35;;;;;;;121.38;38.05;;;;;;;;;;5059012;28;20040;-69
2023/02/18 06:10:01;;;;;;;101.70;34.40;;;;;;;;;;5098338;28;20050;-69
2023/02/18 06:12:27;;;;;;;122.22;35.97;;;;;;;;;;5095480;28;20888;-69
2023/02/18 06:14:54;;;;;;;115.88;36.33;;;;;;;;;;5096147;28;20329;-69
2023/02/18 06:17:21;;;;;;;96.20;33.95;;;;;;;;;;5077548;28;20036;-69
2023/02/18 06:19:47;;;;;;;82.10;32.22;;;;;;;;;;5075856;28;20055;-69
2023/02/18 06:22:14;;;;;;;88.63;34.53;;;;;;;;;;5096546;28;20695;-68
2023/02/18 06:24:40;;;;;;;99.13;35.22;;;;;;;;;;5095624;28;20040;-69
2023/02/18 06:27:06;;;;;;;101.88;37.03;;;;;;;;;;5083976;28;20471;-69
2023/02/18 06:29:34;;;;;;;91.43;36.10;;;;;;;;;;5097866;28;20047;-69
2023/02/18 06:32:01;;;;;;;104.43;38.38;;;;;;;;;;5098804;28;20442;-69
2023/02/18 06:34:27;;;;;;;97.47;36.85;;;;;;;;;;5096264;28;20044;-69
2023/02/18 06:36:53;;;;;;;98.53;37.10;;;;;;;;;;5093951;28;20039;-69
2023/02/18 06:39:19;;;;;;;87.75;35.17;;;;;;;;;;5097440;28;20111;-69
2023/02/18 06:41:45;;;;;;;99.80;38.40;;;;;;;;;;5093558;28;20051;-70
2023/02/18 06:44:14;;;;;;;89.15;33.97;;;;;;;;;;5096878;28;20107;-70
2023/02/18 06:46:40;;;;;;;83.13;33.97;;;;;;;;;;5095971;28;20043;-70
2023/02/18 06:49:06;;;;;;;75.80;32.30;;;;;;;;;;5076806;28;20055;-73
2023/02/18 06:51:32;;;;;;;77.72;31.30;;;;;;;;;;5096713;28;20044;-69
2023/02/18 06:53:58;;;;;;;76.57;32.83;;;;;;;;;;5078073;28;20032;-70
2023/02/18 06:56:25;;;;;;;77.18;28.98;;;;;;;;;;5095162;28;20036;-69
2023/02/18 06:58:51;;;;;;;59.78;28.05;;;;;;;;;;5075467;28;20153;-70
2023/02/18 07:01:17;;;;;;;73.03;28.20;;;;;;;;;;5077495;28;20047;-69
2023/02/18 07:03:43;;;;;;;72.80;29.55;;;;;;;;;;5098539;28;20074;-69
2023/02/18 07:06:09;;;;;;;56.20;23.90;;;;;;;;;;5098417;28;20067;-69
2023/02/18 07:08:36;;;;;;;59.05;23.10;;;;;;;;;;5096263;28;20048;-69
2023/02/18 07:11:02;;;;;;;46.05;21.95;;;;;;;;;;5094741;28;20395;-82
2023/02/18 07:13:29;;;;;;;46.28;20.75;;;;;;;;;;5094557;28;20048;-67
2023/02/18 07:15:55;;;;;;;43.50;21.00;;;;;;;;;;5099995;28;20529;-65
2023/02/18 07:18:21;;;;;;;54.45;21.25;;;;;;;;;;5096874;28;20122;-66
2023/02/18 07:20:47;;;;;;;61.65;21.13;;;;;;;;;;5096138;28;20035;-65
2023/02/18 07:23:13;;;;;;;43.60;18.65;;;;;;;;;;5092575;28;20047;-65
2023/02/18 07:25:40;;;;;;;44.03;18.48;;;;;;;;;;5100281;28;20085;-65
2023/02/18 07:28:06;;;;;;;41.25;18.88;;;;;;;;;;5093866;28;20168;-65
2023/02/18 07:30:32;;;;;;;43.35;18.75;;;;;;;;;;5080116;28;20438;-64
2023/02/18 07:32:58;;;;;;;38.97;17.13;;;;;;;;;;5083518;28;20052;-65
2023/02/18 07:35:24;;;;;;;36.63;16.50;;;;;;;;;;5103770;28;20032;-65
2023/02/18 07:37:51;;;;;;;41.70;16.40;;;;;;;;;;5102378;28;20088;-65
2023/02/18 07:40:18;;;;;;;36.92;15.75;;;;;;;;;;5093412;28;20434;-65
2023/02/18 07:42:45;;;;;;;43.28;14.60;;;;;;;;;;5094509;28;20063;-65
2023/02/18 07:45:11;;;;;;;38.00;14.93;;;;;;;;;;5103760;28;20092;-65
2023/02/18 07:47:38;;;;;;;34.83;13.95;;;;;;;;;;5097650;28;20036;-65
2023/02/18 07:50:05;;;;;;;37.17;14.40;;;;;;;;;;5097683;28;20047;-65
2023/02/18 07:52:31;;;;;;;30.48;13.30;;;;;;;;;;5099726;28;20181;-64
2023/02/18 07:54:57;;;;;;;32.15;11.73;;;;;;;;;;5096266;28;20047;-64
2023/02/18 07:57:23;;;;;;;30.30;10.70;;;;;;;;;;5094943;28;20048;-65
2023/02/18 07:59:49;;;;;;;29.77;10.85;;;;;;;;;;5080188;28;20123;-65
2023/02/18 08:02:18;;;;;;;28.48;9.07;;;;;;;;;;5096405;28;20043;-65
2023/02/18 08:04:44;;;;;;;29.17;8.73;;;;;;;;;;5090319;28;20048;-65
2023/02/18 08:07:13;;;;;;;21.75;8.15;;;;;;;;;;5077122;28;20479;-74
2023/02/18 08:09:39;;;;;;;20.38;7.25;;;;;;;;;;5077499;28;20085;-69
2023/02/18 08:12:06;;;;;;;21.50;6.82;;;;;;;;;;5098407;28;20058;-69
2023/02/18 08:14:32;;;;;;;24.13;6.47;;;;;;;;;;5075030;28;20135;-67
2023/02/18 08:16:58;;;;;;;24.15;5.63;;;;;;;;;;5075654;28;20074;-67
2023/02/18 08:19:24;;;;;;;22.35;5.57;;;;;;;;;;5088892;28;20047;-67
2023/02/18 08:21:51;;;;;;;21.25;5.38;;;;;;;;;;5097177;28;20043;-66
2023/02/18 08:24:17;;;;;;;19.33;4.88;;;;;;;;;;5101594;28;20062;-68
2023/02/18 08:26:43;;;;;;;30.80;6.32;;;;;;;;;;5079611;28;21165;-69
2023/02/18 08:29:09;;;;;;;28.65;5.43;;;;;;;;;;5075778;28;20484;-68
2023/02/18 08:31:35;;;;;;;36.17;6.13;;;;;;;;;;5077815;28;20092;-68
2023/02/18 08:34:02;;;;;;;21.65;4.50;;;;;;;;;;5094468;28;20044;-73
2023/02/18 08:36:29;;;;;;;24.27;5.30;;;;;;;;;;5074060;28;20059;-67
2023/02/18 08:38:55;;;;;;;28.15;5.18;;;;;;;;;;5096991;28;20074;-67
2023/02/18 08:41:21;;;;;;;23.05;4.95;;;;;;;;;;5102071;28;20160;-67
2023/02/18 08:43:48;;;;;;;26.42;5.53;;;;;;;;;;5078236;28;20075;-68
2023/02/18 08:46:15;;;;;;;24.63;5.90;;;;;;;;;;5099578;28;20039;-68
2023/02/18 08:48:41;;;;;;;36.17;6.80;;;;;;;;;;5076299;28;20388;-68
2023/02/18 08:51:12;;;;;;;24.38;5.93;;;;;;;;;;5089586;28;20050;-68
2023/02/18 08:53:38;;;;;;;26.00;6.07;;;;;;;;;;5093959;28;20095;-67
2023/02/18 08:56:07;;;;;;;25.63;6.15;;;;;;;;;;5070612;28;20122;-68
2023/02/18 08:58:36;;;;;;;24.00;5.20;;;;;;;;;;5094059;28;20055;-67
2023/02/18 09:01:03;;;;;;;33.65;5.43;;;;;;;;;;5095518;28;20059;-67
2023/02/18 09:03:29;;;;;;;28.45;5.30;;;;;;;;;;5075937;28;20058;-68
2023/02/18 09:05:56;;;;;;;31.48;5.32;;;;;;;;;;5097359;28;20433;-68
2023/02/18 09:08:22;;;;;;;31.33;5.22;;;;;;;;;;5093848;28;20055;-68
2023/02/18 09:10:48;;;;;;;25.50;4.78;;;;;;;;;;5089095;28;20044;-68
2023/02/18 09:13:15;;;;;;;24.88;4.65;;;;;;;;;;5095413;28;20494;-68
2023/02/18 09:15:41;;;;;;;27.90;5.05;;;;;;;;;;5074449;28;20058;-68
2023/02/18 09:18:07;;;;;;;29.95;5.35;;;;;;;;;;5073492;28;20134;-68
2023/02/18 09:20:33;;;;;;;24.83;3.95;;;;;;;;;;5093220;28;20462;-68
2023/02/18 09:23:02;;;;;;;32.03;6.50;;;;;;;;;;5092903;28;20443;-68
2023/02/18 09:25:28;;;;;;;21.85;4.85;;;;;;;;;;5092828;28;20063;-68
2023/02/18 09:27:54;;;;;;;26.70;4.30;;;;;;;;;;5074306;28;21748;-68
2023/02/18 09:30:21;;;;;;;25.75;4.75;;;;;;;;;;5100710;28;20386;-67
2023/02/18 09:32:47;;;;;;;38.53;5.53;;;;;;;;;;5082126;28;20510;-68
2023/02/18 09:35:13;;;;;;;26.08;4.95;;;;;;;;;;5086816;28;20130;-68
2023/02/18 09:37:40;;;;;;;28.80;6.00;;;;;;;;;;5084402;28;20069;-68
2023/02/18 09:40:07;;;;;;;29.77;5.70;;;;;;;;;;5082101;28;20395;-68
2023/02/18 09:42:34;;;;;;;19.80;4.47;;;;;;;;;;5076214;28;20055;-67
2023/02/18 09:45:03;;;;;;;33.50;5.80;;;;;;;;;;5076377;28;20055;-68
2023/02/18 09:47:32;;;;;;;29.73;5.45;;;;;;;;;;5079142;28;20110;-68
2023/02/18 09:50:00;;;;;;;40.97;5.38;;;;;;;;;;5097629;28;20036;-68
2023/02/18 09:52:29;;;;;;;23.67;4.55;;;;;;;;;;5076089;28;20445;-68
2023/02/18 09:54:56;;;;;;;23.17;3.88;;;;;;;;;;5094996;28;20131;-69
2023/02/18 09:57:33;;;;;;;26.00;4.10;;;;;;;;;;5098854;28;20623;-67
2023/02/18 10:00:01;;;;;;;23.48;4.18;;;;;;;;;;5076964;28;20044;-68
2023/02/18 10:02:28;;;;;;;25.33;3.63;;;;;;;;;;5095629;28;20038;-67
2023/02/18 10:04:55;;;;;;;25.48;4.63;;;;;;;;;;5096776;28;20043;-67
2023/02/18 10:07:24;;;;;;;24.75;4.47;;;;;;;;;;5073426;28;21685;-67
2023/02/18 10:09:51;;;;;;;28.95;4.38;;;;;;;;;;5095657;28;20564;-67
2023/02/18 10:12:19;;;;;;;21.80;4.03;;;;;;;;;;5079699;28;20040;-68
2023/02/18 10:14:51;;;;;;;22.60;4.53;;;;;;;;;;5093694;28;20078;-68
2023/02/18 10:17:17;;;;;;;27.75;4.70;;;;;;;;;;5081490;28;20043;-68
2023/02/18 10:19:45;;;;;;;19.65;3.78;;;;;;;;;;5094442;28;20427;-68
2023/02/18 10:22:12;;;;;;;28.65;4.30;;;;;;;;;;5075593;28;20107;-68
2023/02/18 10:24:49;;;;;;;28.20;4.15;;;;;;;;;;5095371;28;20047;-68
2023/02/18 10:27:18;;;;;;;30.98;5.25;;;;;;;;;;5081774;28;20058;-80
2023/02/18 10:29:45;;;;;;;25.38;4.47;;;;;;;;;;5100023;28;20500;-68
2023/02/18 10:32:23;;;;;;;20.75;3.95;;;;;;;;;;5099535;28;20048;-68
2023/02/18 10:34:49;;;;;;;26.70;5.90;;;;;;;;;;5083619;28;20052;-68
2023/02/18 10:37:23;;;;;;;28.00;5.60;;;;;;;;;;5074739;28;20048;-68
2023/02/18 10:39:50;;;;;;;20.17;4.22;;;;;;;;;;5092487;28;20043;-68
2023/02/18 10:42:27;;;;;;;15.35;4.07;;;;;;;;;;5090576;28;20048;-67
2023/02/18 10:44:59;;;;;;;22.20;4.07;;;;;;;;;;5091431;28;20051;-67
2023/02/18 10:47:26;;;;;;;12.90;3.42;;;;;;;;;;5096308;28;20040;-68
2023/02/18 10:49:53;;;;;;;15.15;3.38;;;;;;;;;;5094202;28;20329;-67
2023/02/18 10:52:20;;;;;;;20.58;5.20;;;;;;;;;;5074721;28;20620;-67
2023/02/18 10:54:49;;;;;;;20.30;3.95;;;;;;;;;;5096239;28;20176;-67
2023/02/18 10:57:18;;;;;;;19.00;4.68;;;;;;;;;;5081097;28;20392;-67
2023/02/18 10:59:53;;;;;;;21.05;4.18;;;;;;;;;;5079379;28;20043;-66
2023/02/18 11:02:19;;;;;;;15.38;3.80;;;;;;;;;;5090825;28;20119;-67
2023/02/18 11:04:46;;;;;;;22.33;4.70;;;;;;;;;;5094770;28;20048;-67
2023/02/18 11:07:13;;;;;;;24.77;4.38;;;;;;;;;;5098159;28;20130;-69
2023/02/18 11:09:41;;;;;;;25.50;4.70;;;;;;;;;;5081916;28;20048;-69
2023/02/18 11:12:16;;;;;;;17.17;3.42;;;;;;;;;;5095467;28;20058;-69
2023/02/18 11:14:44;;;;;;;18.92;3.25;;;;;;;;;;5077544;28;20563;-69
2023/02/18 11:17:18;;;;;;;21.70;4.30;;;;;;;;;;5093573;28;20076;-69
2023/02/18 11:19:51;;;;;;;21.80;3.72;;;;;;;;;;5092968;28;20047;-69
2023/02/18 11:22:20;;;;;;;19.60;3.67;;;;;;;;;;5092736;28;20078;-70
2023/02/18 11:24:47;;;;;;;22.17;4.13;;;;;;;;;;5075655;28;20059;-70
2023/02/18 11:27:20;;;;;;;16.23;4.30;;;;;;;;;;5074165;28;20044;-70
2023/02/18 11:29:48;;;;;;;26.80;5.03;;;;;;;;;;5091511;28;20499;-69
2023/02/18 11:32:14;;;;;;;21.48;4.38;;;;;;;;;;5092474;28;20087;-69
2023/02/18 11:34:42;;;;;;;21.25;3.80;;;;;;;;;;5094991;28;20040;-70
2023/02/18 11:37:10;;;;;;;19.50;3.92;;;;;;;;;;5073869;28;20079;-69
2023/02/18 11:39:36;;;;;;;22.73;4.63;;;;;;;;;;5092512;28;20036;-69
2023/02/18 11:42:04;;;;;;;22.45;4.97;;;;;;;;;;5092225;28;20044;-70
2023/02/18 11:44:31;;;;;;;21.67;4.45;;;;;;;;;;5090556;28;20050;-70
2023/02/18 11:47:02;;;;;;;19.27;3.45;;;;;;;;;;5093987;28;20720;-69
2023/02/18 11:49:29;;;;;;;27.88;4.25;;;;;;;;;;5074453;28;20059;-68
2023/02/18 11:52:03;;;;;;;30.45;5.53;;;;;;;;;;5074640;28;20043;-67
2023/02/18 11:54:30;;;;;;;14.98;4.38;;;;;;;;;;5072774;28;20371;-68
2023/02/18 11:56:59;;;;;;;23.08;5.10;;;;;;;;;;5093597;28;20044;-68
2023/02/18 11:59:25;;;;;;;24.65;4.97;;;;;;;;;;5095237;28;20130;-68
2023/02/18 12:01:55;;;;;;;16.35;4.00;;;;;;;;;;5091117;28;20047;-68
2023/02/18 12:04:29;;;;;;;19.63;4.50;;;;;;;;;;5093030;28;20047;-68
2023/02/18 12:07:05;;;;;;;21.60;7.07;;;;;;;;;;5094701;28;20081;-68
2023/02/18 12:09:35;;;;;;;21.25;4.40;;;;;;;;;;5091715;28;20142;-69
2023/02/18 12:12:03;;;;;;;22.95;3.65;;;;;;;;;;5074145;28;20132;-69
2023/02/18 12:14:29;;;;;;;19.50;4.70;;;;;;;;;;5091404;28;20055;-69
2023/02/18 12:17:05;;;;;;;20.75;3.85;;;;;;;;;;5094613;28;20087;-69
2023/02/18 12:19:39;;;;;;;18.65;4.78;;;;;;;;;;5090233;28;20055;-69
2023/02/18 12:22:25;;;;;;;21.63;3.83;;;;;;;;;;5074221;28;20052;-68
2023/02/18 12:25:01;;;;;;;21.48;4.03;;;;;;;;;;5090521;28;20073;-69
2023/02/18 12:27:33;;;;;;;20.17;4.05;;;;;;;;;;5072772;28;20475;-69
2023/02/18 12:30:08;;;;;;;19.60;3.92;;;;;;;;;;5091927;28;20048;-69
2023/02/18 12:32:44;;;;;;;19.02;4.30;;;;;;;;;;5091216;28;20483;-69
2023/02/18 12:35:16;;;;;;;18.70;3.65;;;;;;;;;;5072623;28;20051;-69
2023/02/18 12:37:49;;;;;;;18.67;3.47;;;;;;;;;;5075610;28;20360;-67
2023/02/18 12:40:35;;;;;;;21.63;4.50;;;;;;;;;;5090788;28;20135;-67
2023/02/18 12:43:13;;;;;;;20.83;4.28;;;;;;;;;;5089831;28;20059;-69
2023/02/18 12:45:51;;;;;;;24.23;4.82;;;;;;;;;;5090867;28;20036;-68
2023/02/18 12:48:17;;;;;;;25.88;4.45;;;;;;;;;;5087360;28;20043;-68
2023/02/18 12:50:47;;;;;;;24.23;4.03;;;;;;;;;;5090443;28;20032;-68
2023/02/18 12:53:19;;;;;;;22.00;3.80;;;;;;;;;;5091824;28;20047;-68
2023/02/18 12:55:52;;;;;;;27.08;4.05;;;;;;;;;;5092379;28;20177;-68
2023/02/18 12:58:37;;;;;;;19.60;3.33;;;;;;;;;;5094792;28;20404;-69
2023/02/18 13:01:03;;;;;;;16.25;3.97;;;;;;;;;;5093310;28;20293;-68
2023/02/18 13:03:45;;;;;;;15.70;4.32;;;;;;;;;;5074531;28;20143;-67
2023/02/18 13:06:24;;;;;;;21.27;3.70;;;;;;;;;;5093335;28;20050;-68
2023/02/18 13:09:04;;;;;;;20.23;4.57;;;;;;;;;;5090388;28;20048;-67
2023/02/18 13:11:42;;;;;;;22.77;4.68;;;;;;;;;;5093026;28;20048;-67
2023/02/18 13:14:09;;;;;;;18.50;3.72;;;;;;;;;;5074088;28;20040;-68
2023/02/18 13:16:36;;;;;;;18.20;3.60;;;;;;;;;;5091081;28;20131;-67
2023/02/18 13:19:14;;;;;;;21.45;4.38;;;;;;;;;;5092335;28;20164;-67
2023/02/18 13:21:43;;;;;;;16.15;3.95;;;;;;;;;;5067748;28;20052;-67
2023/02/18 13:24:12;;;;;;;16.80;3.97;;;;;;;;;;5073338;28;20044;-67
2023/02/18 13:26:39;;;;;;;29.92;3.80;;;;;;;;;;5090503;28;20047;-68
2023/02/18 13:29:21;;;;;;;13.93;3.20;;;;;;;;;;5093729;28;20519;-67
2023/02/18 13:32:02;;;;;;;21.80;4.03;;;;;;;;;;5090676;28;20052;-68
2023/02/18 13:34:38;;;;;;;19.30;3.85;;;;;;;;;;5088832;28;20054;-67
2023/02/18 13:37:08;;;;;;;29.95;4.13;;;;;;;;;;5093248;28;20052;-67
2023/02/18 13:39:35;;;;;;;22.95;4.40;;;;;;;;;;5093788;28;20039;-68
2023/02/18 13:42:12;;;;;;;26.92;5.05;;;;;;;;;;5087016;28;20082;-67
2023/02/18 13:44:40;;;;;;;25.83;4.05;;;;;;;;;;5078173;28;20086;-77
2023/02/18 13:47:08;;;;;;;29.20;5.55;;;;;;;;;;5075784;28;20048;-68
2023/02/18 13:49:37;;;;;;;27.80;4.22;;;;;;;;;;5095637;28;20056;-68
2023/02/18 13:52:04;;;;;;;21.25;3.70;;;;;;;;;;5069264;28;20054;-68
2023/02/18 13:54:34;;;;;;;22.70;4.07;;;;;;;;;;5090706;28;20040;-68
2023/02/18 13:57:01;;;;;;;22.30;4.38;;;;;;;;;;5068754;28;20740;-68
2023/02/18 13:59:34;;;;;;;20.67;3.67;;;;;;;;;;5091808;28;20147;-68
2023/02/18 14:02:21;;;;;;;21.48;4.28;;;;;;;;;;5097960;28;20506;-68
2023/02/18 14:04:50;;;;;;;17.42;4.90;;;;;;;;;;5090879;28;20463;-68
2023/02/18 14:07:38;;;;;;;21.90;4.50;;;;;;;;;;5092941;28;20048;-68
2023/02/18 14:10:07;;;;;;;22.27;4.40;;;;;;;;;;5097158;28;20684;-67
2023/02/18 14:12:33;;;;;;;23.02;4.63;;;;;;;;;;5096391;28;20050;-68
2023/02/18 14:14:59;;;;;;;23.13;3.80;;;;;;;;;;5094958;28;20046;-68
2023/02/18 14:17:30;;;;;;;25.40;4.45;;;;;;;;;;5095330;28;20031;-68
2023/02/18 14:19:59;;;;;;;29.25;5.05;;;;;;;;;;5092270;28;20044;-68
2023/02/18 14:22:28;;;;;;;31.63;4.78;;;;;;;;;;5091936;28;20047;-67
2023/02/18 14:24:56;;;;;;;34.17;5.18;;;;;;;;;;5089881;28;20466;-67
2023/02/18 14:27:23;;;;;;;24.15;4.22;;;;;;;;;;5076042;28;20483;-69
2023/02/18 14:29:51;;;;;;;26.95;4.05;;;;;;;;;;5076318;28;20043;-69
2023/02/18 14:32:18;;;;;;;18.70;3.90;;;;;;;;;;5093030;28;20044;-69